sensor_id;sensor_type;location;lat;lon;timestamp;P1;durP1;ratioP1;P2;durP2;ratioP2
77202;SDS011;66327;50.096;8.498;2023-12-20T00:00:10;7.57;;;3.80;;
77202;SDS011;66327;50.096;8.498;2023-12-20T00:02:36;10.50;;;5.60;;
77202;SDS011;66327;50.096;8.498;2023-12-20T00:05:02;8.50;;;4.38;;
77202;SDS011;66327;50.096;8.498;2023-12-20T00:07:29;6.10;;;3.38;;
77202;SDS011;66327;50.096;8.498;2023-12-20T00:09:55;6.15;;;3.15;;
77202;SDS011;66327;50.096;8.498;2023-12-20T00:12:22;8.20;;;3.78;;
77202;SDS011;66327;50.096;8.498;2023-12-20T00:14:48;7.18;;;3.88;;
77202;SDS011;66327;50.096;8.498;2023-12-20T00:17:15;7.43;;;4.25;;
77202;SDS011;66327;50.096;8.498;2023-12-20T00:19:41;7.78;;;3.20;;
77202;SDS011;66327;50.096;8.498;2023-12-20T00:22:07;10.27;;;4.43;;
77202;SDS011;66327;50.096;8.498;2023-12-20T00:24:34;9.82;;;4.93;;
77202;SDS011;66327;50.096;8.498;2023-12-20T00:27:00;9.45;;;4.93;;
77202;SDS011;66327;50.096;8.498;2023-12-20T00:29:26;11.15;;;4.50;;
77202;SDS011;66327;50.096;8.498;2023-12-20T00:31:53;12.30;;;5.18;;
77202;SDS011;66327;50.096;8.498;2023-12-20T00:34:19;8.70;;;3.70;;
77202;SDS011;66327;50.096;8.498;2023-12-20T00:36:45;8.80;;;4.00;;
77202;SDS011;66327;50.096;8.498;2023-12-20T00:39:12;8.73;;;4.03;;
77202;SDS011;66327;50.096;8.498;2023-12-20T00:41:38;7.88;;;3.95;;
77202;SDS011;66327;50.096;8.498;2023-12-20T00:44:04;11.10;;;4.00;;
77202;SDS011;66327;50.096;8.498;2023-12-20T00:46:30;6.72;;;3.47;;
77202;SDS011;66327;50.096;8.498;2023-12-20T00:48:57;5.45;;;3.40;;
77202;SDS011;66327;50.096;8.498;2023-12-20T00:51:23;8.38;;;4.30;;
77202;SDS011;66327;50.096;8.498;2023-12-20T00:53:50;4.95;;;2.97;;
77202;SDS011;66327;50.096;8.498;2023-12-20T00:56:16;10.38;;;4.38;;
77202;SDS011;66327;50.096;8.498;2023-12-20T00:58:42;8.88;;;3.50;;
77202;SDS011;66327;50.096;8.498;2023-12-20T01:01:09;6.32;;;3.83;;
77202;SDS011;66327;50.096;8.498;2023-12-20T01:03:35;8.02;;;4.30;;
77202;SDS011;66327;50.096;8.498;2023-12-20T01:06:02;3.47;;;2.35;;
77202;SDS011;66327;50.096;8.498;2023-12-20T01:08:30;8.63;;;4.35;;
77202;SDS011;66327;50.096;8.498;2023-12-20T01:10:57;7.60;;;3.95;;
77202;SDS011;66327;50.096;8.498;2023-12-20T01:13:23;6.75;;;3.38;;
77202;SDS011;66327;50.096;8.498;2023-12-20T01:15:49;5.53;;;3.45;;
77202;SDS011;66327;50.096;8.498;2023-12-20T01:18:16;8.02;;;4.10;;
77202;SDS011;66327;50.096;8.498;2023-12-20T01:20:42;5.78;;;2.72;;
77202;SDS011;66327;50.096;8.498;2023-12-20T01:23:09;5.68;;;3.40;;
77202;SDS011;66327;50.096;8.498;2023-12-20T01:25:35;7.03;;;2.88;;
77202;SDS011;66327;50.096;8.498;2023-12-20T01:28:01;9.48;;;4.55;;
77202;SDS011;66327;50.096;8.498;2023-12-20T01:30:29;5.90;;;3.15;;
77202;SDS011;66327;50.096;8.498;2023-12-20T01:32:55;7.95;;;3.83;;
77202;SDS011;66327;50.096;8.498;2023-12-20T01:35:22;3.13;;;1.85;;
77202;SDS011;66327;50.096;8.498;2023-12-20T01:37:48;6.20;;;3.53;;
77202;SDS011;66327;50.096;8.498;2023-12-20T01:40:14;9.68;;;3.83;;
77202;SDS011;66327;50.096;8.498;2023-12-20T01:42:41;6.28;;;3.50;;
77202;SDS011;66327;50.096;8.498;2023-12-20T01:45:08;7.18;;;4.40;;
77202;SDS011;66327;50.096;8.498;2023-12-20T01:47:34;3.60;;;2.50;;
77202;SDS011;66327;50.096;8.498;2023-12-20T01:50:01;8.40;;;4.05;;
77202;SDS011;66327;50.096;8.498;2023-12-20T01:52:29;4.88;;;2.45;;
77202;SDS011;66327;50.096;8.498;2023-12-20T01:54:56;4.70;;;2.42;;
77202;SDS011;66327;50.096;8.498;2023-12-20T01:57:28;8.40;;;4.00;;
77202;SDS011;66327;50.096;8.498;2023-12-20T01:59:55;7.72;;;4.00;;
77202;SDS011;66327;50.096;8.498;2023-12-20T02:02:21;8.95;;;4.25;;
77202;SDS011;66327;50.096;8.498;2023-12-20T02:04:47;7.13;;;3.30;;
77202;SDS011;66327;50.096;8.498;2023-12-20T02:07:14;3.10;;;1.83;;
77202;SDS011;66327;50.096;8.498;2023-12-20T02:09:40;7.05;;;3.10;;
77202;SDS011;66327;50.096;8.498;2023-12-20T02:12:07;6.15;;;3.33;;
77202;SDS011;66327;50.096;8.498;2023-12-20T02:14:33;7.28;;;3.58;;
77202;SDS011;66327;50.096;8.498;2023-12-20T02:17:00;6.90;;;3.60;;
77202;SDS011;66327;50.096;8.498;2023-12-20T02:19:28;5.75;;;2.60;;
77202;SDS011;66327;50.096;8.498;2023-12-20T02:22:11;7.35;;;3.72;;
77202;SDS011;66327;50.096;8.498;2023-12-20T02:24:38;8.10;;;3.47;;
77202;SDS011;66327;50.096;8.498;2023-12-20T02:27:07;7.93;;;3.80;;
77202;SDS011;66327;50.096;8.498;2023-12-20T02:29:34;6.65;;;3.17;;
77202;SDS011;66327;50.096;8.498;2023-12-20T02:32:01;7.00;;;3.55;;
77202;SDS011;66327;50.096;8.498;2023-12-20T02:34:27;3.85;;;1.83;;
77202;SDS011;66327;50.096;8.498;2023-12-20T02:36:54;8.35;;;3.47;;
77202;SDS011;66327;50.096;8.498;2023-12-20T02:39:20;6.07;;;3.53;;
77202;SDS011;66327;50.096;8.498;2023-12-20T02:41:47;7.80;;;3.42;;
77202;SDS011;66327;50.096;8.498;2023-12-20T02:44:13;6.25;;;3.47;;
77202;SDS011;66327;50.096;8.498;2023-12-20T02:46:39;7.63;;;3.28;;
77202;SDS011;66327;50.096;8.498;2023-12-20T02:49:06;4.60;;;2.20;;
77202;SDS011;66327;50.096;8.498;2023-12-20T02:51:32;5.53;;;3.00;;
77202;SDS011;66327;50.096;8.498;2023-12-20T02:53:59;6.53;;;3.38;;
77202;SDS011;66327;50.096;8.498;2023-12-20T02:56:25;4.38;;;2.53;;
77202;SDS011;66327;50.096;8.498;2023-12-20T02:58:51;7.18;;;3.78;;
77202;SDS011;66327;50.096;8.498;2023-12-20T03:01:18;6.13;;;3.22;;
77202;SDS011;66327;50.096;8.498;2023-12-20T03:03:44;8.23;;;3.70;;
77202;SDS011;66327;50.096;8.498;2023-12-20T03:06:10;4.40;;;1.92;;
77202;SDS011;66327;50.096;8.498;2023-12-20T03:08:37;6.18;;;2.90;;
77202;SDS011;66327;50.096;8.498;2023-12-20T03:11:03;5.75;;;3.20;;
77202;SDS011;66327;50.096;8.498;2023-12-20T03:13:29;3.08;;;1.73;;
77202;SDS011;66327;50.096;8.498;2023-12-20T03:15:56;2.10;;;1.33;;
77202;SDS011;66327;50.096;8.498;2023-12-20T03:18:22;5.30;;;2.53;;
77202;SDS011;66327;50.096;8.498;2023-12-20T03:20:48;3.63;;;1.90;;
77202;SDS011;66327;50.096;8.498;2023-12-20T03:23:16;4.63;;;2.00;;
77202;SDS011;66327;50.096;8.498;2023-12-20T03:25:43;4.97;;;2.13;;
77202;SDS011;66327;50.096;8.498;2023-12-20T03:28:09;5.25;;;2.55;;
77202;SDS011;66327;50.096;8.498;2023-12-20T03:30:35;5.60;;;2.60;;
77202;SDS011;66327;50.096;8.498;2023-12-20T03:33:01;1.88;;;1.40;;
77202;SDS011;66327;50.096;8.498;2023-12-20T03:35:28;3.78;;;2.30;;
77202;SDS011;66327;50.096;8.498;2023-12-20T03:37:55;5.35;;;2.42;;
77202;SDS011;66327;50.096;8.498;2023-12-20T03:40:21;2.33;;;1.33;;
77202;SDS011;66327;50.096;8.498;2023-12-20T03:42:49;7.30;;;2.90;;
77202;SDS011;66327;50.096;8.498;2023-12-20T03:45:15;1.48;;;1.00;;
77202;SDS011;66327;50.096;8.498;2023-12-20T03:47:41;5.13;;;2.63;;
77202;SDS011;66327;50.096;8.498;2023-12-20T03:50:08;5.97;;;2.92;;
77202;SDS011;66327;50.096;8.498;2023-12-20T03:52:35;4.85;;;2.30;;
77202;SDS011;66327;50.096;8.498;2023-12-20T03:55:01;3.95;;;2.38;;
77202;SDS011;66327;50.096;8.498;2023-12-20T03:57:27;2.58;;;1.42;;
77202;SDS011;66327;50.096;8.498;2023-12-20T03:59:54;3.03;;;1.58;;
77202;SDS011;66327;50.096;8.498;2023-12-20T04:02:20;3.78;;;1.80;;
77202;SDS011;66327;50.096;8.498;2023-12-20T04:04:46;2.90;;;1.70;;
77202;SDS011;66327;50.096;8.498;2023-12-20T04:07:13;3.30;;;1.80;;
77202;SDS011;66327;50.096;8.498;2023-12-20T04:09:42;6.43;;;2.85;;
77202;SDS011;66327;50.096;8.498;2023-12-20T04:12:08;4.53;;;1.63;;
77202;SDS011;66327;50.096;8.498;2023-12-20T04:14:34;5.80;;;2.65;;
77202;SDS011;66327;50.096;8.498;2023-12-20T04:17:01;4.50;;;2.25;;
77202;SDS011;66327;50.096;8.498;2023-12-20T04:19:27;5.30;;;2.53;;
77202;SDS011;66327;50.096;8.498;2023-12-20T04:21:54;3.17;;;1.58;;
77202;SDS011;66327;50.096;8.498;2023-12-20T04:24:20;4.35;;;2.28;;
77202;SDS011;66327;50.096;8.498;2023-12-20T04:26:46;4.82;;;2.50;;
77202;SDS011;66327;50.096;8.498;2023-12-20T04:29:13;4.80;;;2.60;;
77202;SDS011;66327;50.096;8.498;2023-12-20T04:31:39;6.22;;;2.80;;
77202;SDS011;66327;50.096;8.498;2023-12-20T04:34:05;5.05;;;2.53;;
77202;SDS011;66327;50.096;8.498;2023-12-20T04:36:32;5.13;;;2.25;;
77202;SDS011;66327;50.096;8.498;2023-12-20T04:38:58;6.03;;;2.70;;
77202;SDS011;66327;50.096;8.498;2023-12-20T04:41:25;4.63;;;2.45;;
77202;SDS011;66327;50.096;8.498;2023-12-20T04:43:53;6.05;;;2.85;;
77202;SDS011;66327;50.096;8.498;2023-12-20T04:46:20;5.15;;;2.50;;
77202;SDS011;66327;50.096;8.498;2023-12-20T04:48:46;6.90;;;2.92;;
77202;SDS011;66327;50.096;8.498;2023-12-20T04:51:13;4.47;;;2.30;;
77202;SDS011;66327;50.096;8.498;2023-12-20T04:53:39;4.68;;;2.42;;
77202;SDS011;66327;50.096;8.498;2023-12-20T04:56:05;4.88;;;2.58;;
77202;SDS011;66327;50.096;8.498;2023-12-20T04:58:31;6.68;;;3.05;;
77202;SDS011;66327;50.096;8.498;2023-12-20T05:00:58;4.65;;;2.65;;
77202;SDS011;66327;50.096;8.498;2023-12-20T05:03:24;6.85;;;2.90;;
77202;SDS011;66327;50.096;8.498;2023-12-20T05:05:51;6.35;;;2.83;;
77202;SDS011;66327;50.096;8.498;2023-12-20T05:08:17;7.95;;;3.42;;
77202;SDS011;66327;50.096;8.498;2023-12-20T05:10:44;6.00;;;3.00;;
77202;SDS011;66327;50.096;8.498;2023-12-20T05:13:12;6.68;;;3.13;;
77202;SDS011;66327;50.096;8.498;2023-12-20T05:15:39;7.45;;;3.92;;
77202;SDS011;66327;50.096;8.498;2023-12-20T05:18:05;5.25;;;2.88;;
77202;SDS011;66327;50.096;8.498;2023-12-20T05:20:32;7.22;;;3.53;;
77202;SDS011;66327;50.096;8.498;2023-12-20T05:22:58;7.88;;;3.40;;
77202;SDS011;66327;50.096;8.498;2023-12-20T05:25:24;9.60;;;3.45;;
77202;SDS011;66327;50.096;8.498;2023-12-20T05:27:51;7.32;;;2.97;;
77202;SDS011;66327;50.096;8.498;2023-12-20T05:30:17;7.60;;;3.10;;
77202;SDS011;66327;50.096;8.498;2023-12-20T05:32:44;7.88;;;2.10;;
77202;SDS011;66327;50.096;8.498;2023-12-20T05:35:10;3.33;;;1.65;;
77202;SDS011;66327;50.096;8.498;2023-12-20T05:37:37;2.42;;;1.55;;
77202;SDS011;66327;50.096;8.498;2023-12-20T05:40:03;3.78;;;1.70;;
77202;SDS011;66327;50.096;8.498;2023-12-20T05:42:30;2.78;;;0.52;;
77202;SDS011;66327;50.096;8.498;2023-12-20T05:44:56;2.90;;;1.90;;
77202;SDS011;66327;50.096;8.498;2023-12-20T05:47:24;5.03;;;2.05;;
77202;SDS011;66327;50.096;8.498;2023-12-20T05:49:51;6.28;;;1.90;;
77202;SDS011;66327;50.096;8.498;2023-12-20T05:52:17;4.60;;;1.77;;
77202;SDS011;66327;50.096;8.498;2023-12-20T05:54:43;1.65;;;0.90;;
77202;SDS011;66327;50.096;8.498;2023-12-20T05:57:10;6.15;;;2.22;;
77202;SDS011;66327;50.096;8.498;2023-12-20T05:59:36;2.42;;;1.02;;
77202;SDS011;66327;50.096;8.498;2023-12-20T06:02:03;1.63;;;0.98;;
77202;SDS011;66327;50.096;8.498;2023-12-20T06:04:29;5.25;;;1.90;;
77202;SDS011;66327;50.096;8.498;2023-12-20T06:06:56;1.48;;;0.85;;
77202;SDS011;66327;50.096;8.498;2023-12-20T06:09:22;5.68;;;1.08;;
77202;SDS011;66327;50.096;8.498;2023-12-20T06:11:48;2.38;;;1.20;;
77202;SDS011;66327;50.096;8.498;2023-12-20T06:14:14;2.45;;;1.00;;
77202;SDS011;66327;50.096;8.498;2023-12-20T06:16:41;5.97;;;1.73;;
77202;SDS011;66327;50.096;8.498;2023-12-20T06:19:08;7.10;;;2.17;;
77202;SDS011;66327;50.096;8.498;2023-12-20T06:21:35;4.50;;;1.77;;
77202;SDS011;66327;50.096;8.498;2023-12-20T06:24:01;4.15;;;1.52;;
77202;SDS011;66327;50.096;8.498;2023-12-20T06:26:27;5.15;;;1.73;;
77202;SDS011;66327;50.096;8.498;2023-12-20T06:28:54;3.65;;;1.70;;
77202;SDS011;66327;50.096;8.498;2023-12-20T06:31:20;2.58;;;1.50;;
77202;SDS011;66327;50.096;8.498;2023-12-20T06:33:46;3.83;;;1.63;;
77202;SDS011;66327;50.096;8.498;2023-12-20T06:36:13;3.65;;;1.30;;
77202;SDS011;66327;50.096;8.498;2023-12-20T06:38:39;2.22;;;1.33;;
77202;SDS011;66327;50.096;8.498;2023-12-20T06:41:06;3.88;;;1.63;;
77202;SDS011;66327;50.096;8.498;2023-12-20T06:43:32;5.97;;;2.42;;
77202;SDS011;66327;50.096;8.498;2023-12-20T06:46:14;6.45;;;2.20;;
77202;SDS011;66327;50.096;8.498;2023-12-20T06:48:40;4.18;;;1.92;;
77202;SDS011;66327;50.096;8.498;2023-12-20T06:51:10;3.25;;;1.63;;
77202;SDS011;66327;50.096;8.498;2023-12-20T06:53:37;5.30;;;1.45;;
77202;SDS011;66327;50.096;8.498;2023-12-20T06:56:03;5.35;;;2.20;;
77202;SDS011;66327;50.096;8.498;2023-12-20T06:58:29;4.47;;;1.10;;
77202;SDS011;66327;50.096;8.498;2023-12-20T07:00:57;1.98;;;1.25;;
77202;SDS011;66327;50.096;8.498;2023-12-20T07:03:23;3.42;;;2.20;;
77202;SDS011;66327;50.096;8.498;2023-12-20T07:05:49;3.15;;;1.75;;
77202;SDS011;66327;50.096;8.498;2023-12-20T07:08:15;5.72;;;2.15;;
77202;SDS011;66327;50.096;8.498;2023-12-20T07:10:42;4.38;;;2.05;;
77202;SDS011;66327;50.096;8.498;2023-12-20T07:13:08;3.08;;;1.83;;
77202;SDS011;66327;50.096;8.498;2023-12-20T07:15:35;3.70;;;2.22;;
77202;SDS011;66327;50.096;8.498;2023-12-20T07:18:03;7.95;;;2.63;;
77202;SDS011;66327;50.096;8.498;2023-12-20T07:20:29;6.60;;;2.33;;
77202;SDS011;66327;50.096;8.498;2023-12-20T07:22:56;4.32;;;1.98;;
77202;SDS011;66327;50.096;8.498;2023-12-20T07:25:22;5.15;;;2.10;;
77202;SDS011;66327;50.096;8.498;2023-12-20T07:27:49;3.25;;;1.95;;
77202;SDS011;66327;50.096;8.498;2023-12-20T07:30:16;4.65;;;2.20;;
77202;SDS011;66327;50.096;8.498;2023-12-20T07:32:42;4.95;;;2.75;;
77202;SDS011;66327;50.096;8.498;2023-12-20T07:35:09;14.07;;;3.13;;
77202;SDS011;66327;50.096;8.498;2023-12-20T07:37:35;4.07;;;2.17;;
77202;SDS011;66327;50.096;8.498;2023-12-20T07:40:02;3.85;;;2.33;;
77202;SDS011;66327;50.096;8.498;2023-12-20T07:42:29;4.43;;;2.50;;
77202;SDS011;66327;50.096;8.498;2023-12-20T07:44:56;9.63;;;2.72;;
77202;SDS011;66327;50.096;8.498;2023-12-20T07:47:22;5.47;;;3.00;;
77202;SDS011;66327;50.096;8.498;2023-12-20T07:49:48;9.07;;;3.22;;
77202;SDS011;66327;50.096;8.498;2023-12-20T07:52:15;10.05;;;2.80;;
77202;SDS011;66327;50.096;8.498;2023-12-20T07:54:41;5.88;;;2.38;;
77202;SDS011;66327;50.096;8.498;2023-12-20T07:57:11;4.57;;;2.75;;
77202;SDS011;66327;50.096;8.498;2023-12-20T07:59:39;5.15;;;2.70;;
77202;SDS011;66327;50.096;8.498;2023-12-20T08:02:05;8.02;;;3.58;;
77202;SDS011;66327;50.096;8.498;2023-12-20T08:04:32;4.35;;;2.17;;
77202;SDS011;66327;50.096;8.498;2023-12-20T08:06:59;2.20;;;1.23;;
77202;SDS011;66327;50.096;8.498;2023-12-20T08:09:26;2.58;;;1.15;;
77202;SDS011;66327;50.096;8.498;2023-12-20T08:11:52;4.30;;;1.92;;
77202;SDS011;66327;50.096;8.498;2023-12-20T08:14:19;1.33;;;0.85;;
77202;SDS011;66327;50.096;8.498;2023-12-20T08:16:45;2.10;;;1.38;;
77202;SDS011;66327;50.096;8.498;2023-12-20T08:19:11;3.10;;;1.77;;
77202;SDS011;66327;50.096;8.498;2023-12-20T08:21:38;4.88;;;2.63;;
77202;SDS011;66327;50.096;8.498;2023-12-20T08:24:04;5.20;;;1.77;;
77202;SDS011;66327;50.096;8.498;2023-12-20T08:26:32;3.08;;;1.83;;
77202;SDS011;66327;50.096;8.498;2023-12-20T08:28:58;5.70;;;1.88;;
77202;SDS011;66327;50.096;8.498;2023-12-20T08:31:27;3.28;;;1.77;;
77202;SDS011;66327;50.096;8.498;2023-12-20T08:33:54;6.20;;;1.98;;
77202;SDS011;66327;50.096;8.498;2023-12-20T08:36:20;6.70;;;1.85;;
77202;SDS011;66327;50.096;8.498;2023-12-20T08:41:15;5.85;;;1.77;;
77202;SDS011;66327;50.096;8.498;2023-12-20T08:43:42;4.68;;;2.00;;
77202;SDS011;66327;50.096;8.498;2023-12-20T08:46:08;2.70;;;1.42;;
77202;SDS011;66327;50.096;8.498;2023-12-20T08:48:39;5.88;;;1.77;;
77202;SDS011;66327;50.096;8.498;2023-12-20T08:51:07;5.90;;;2.22;;
77202;SDS011;66327;50.096;8.498;2023-12-20T08:53:36;4.43;;;2.40;;
77202;SDS011;66327;50.096;8.498;2023-12-20T08:56:03;7.10;;;2.65;;
77202;SDS011;66327;50.096;8.498;2023-12-20T08:58:31;2.13;;;0.98;;
77202;SDS011;66327;50.096;8.498;2023-12-20T09:01:01;5.00;;;1.52;;
77202;SDS011;66327;50.096;8.498;2023-12-20T09:03:32;6.10;;;2.25;;
77202;SDS011;66327;50.096;8.498;2023-12-20T09:06:00;3.15;;;1.90;;
77202;SDS011;66327;50.096;8.498;2023-12-20T09:08:26;7.00;;;2.38;;
77202;SDS011;66327;50.096;8.498;2023-12-20T09:10:52;17.92;;;1.98;;
77202;SDS011;66327;50.096;8.498;2023-12-20T09:13:20;3.45;;;1.77;;
77202;SDS011;66327;50.096;8.498;2023-12-20T09:15:49;6.05;;;1.85;;
77202;SDS011;66327;50.096;8.498;2023-12-20T09:18:15;5.15;;;2.08;;
77202;SDS011;66327;50.096;8.498;2023-12-20T09:20:43;1.35;;;0.93;;
77202;SDS011;66327;50.096;8.498;2023-12-20T09:23:12;2.15;;;1.17;;
77202;SDS011;66327;50.096;8.498;2023-12-20T09:25:39;5.57;;;2.33;;
77202;SDS011;66327;50.096;8.498;2023-12-20T09:28:09;5.25;;;2.22;;
77202;SDS011;66327;50.096;8.498;2023-12-20T09:30:36;9.48;;;2.47;;
77202;SDS011;66327;50.096;8.498;2023-12-20T09:33:05;2.92;;;1.45;;
77202;SDS011;66327;50.096;8.498;2023-12-20T09:35:35;5.70;;;1.38;;
77202;SDS011;66327;50.096;8.498;2023-12-20T09:40:31;2.95;;;1.52;;
77202;SDS011;66327;50.096;8.498;2023-12-20T09:43:04;5.85;;;1.50;;
77202;SDS011;66327;50.096;8.498;2023-12-20T09:45:31;5.75;;;1.63;;
77202;SDS011;66327;50.096;8.498;2023-12-20T09:48:00;5.00;;;2.17;;
77202;SDS011;66327;50.096;8.498;2023-12-20T09:50:28;3.15;;;1.58;;
77202;SDS011;66327;50.096;8.498;2023-12-20T09:53:00;6.93;;;2.30;;
77202;SDS011;66327;50.096;8.498;2023-12-20T09:55:28;7.70;;;2.40;;
77202;SDS011;66327;50.096;8.498;2023-12-20T09:57:57;4.82;;;1.83;;
77202;SDS011;66327;50.096;8.498;2023-12-20T10:00:24;5.88;;;2.28;;
77202;SDS011;66327;50.096;8.498;2023-12-20T10:02:50;3.70;;;1.63;;
77202;SDS011;66327;50.096;8.498;2023-12-20T10:05:26;5.38;;;1.83;;
77202;SDS011;66327;50.096;8.498;2023-12-20T10:07:53;10.85;;;2.92;;
77202;SDS011;66327;50.096;8.498;2023-12-20T10:10:19;6.45;;;2.00;;
77202;SDS011;66327;50.096;8.498;2023-12-20T10:13:01;16.23;;;2.05;;
77202;SDS011;66327;50.096;8.498;2023-12-20T10:15:28;6.57;;;2.00;;
77202;SDS011;66327;50.096;8.498;2023-12-20T10:17:54;5.30;;;2.03;;
77202;SDS011;66327;50.096;8.498;2023-12-20T10:20:25;6.63;;;1.77;;
77202;SDS011;66327;50.096;8.498;2023-12-20T10:22:52;8.82;;;2.50;;
77202;SDS011;66327;50.096;8.498;2023-12-20T10:25:20;4.88;;;1.88;;
77202;SDS011;66327;50.096;8.498;2023-12-20T10:27:47;4.65;;;1.92;;
77202;SDS011;66327;50.096;8.498;2023-12-20T10:30:14;2.00;;;1.05;;
77202;SDS011;66327;50.096;8.498;2023-12-20T10:32:40;3.50;;;1.52;;
77202;SDS011;66327;50.096;8.498;2023-12-20T10:35:08;2.95;;;1.50;;
77202;SDS011;66327;50.096;8.498;2023-12-20T10:40:01;4.60;;;1.90;;
77202;SDS011;66327;50.096;8.498;2023-12-20T10:42:29;6.78;;;1.80;;
77202;SDS011;66327;50.096;8.498;2023-12-20T10:44:56;5.85;;;1.98;;
77202;SDS011;66327;50.096;8.498;2023-12-20T10:47:22;2.55;;;1.35;;
77202;SDS011;66327;50.096;8.498;2023-12-20T10:52:17;3.33;;;1.80;;
77202;SDS011;66327;50.096;8.498;2023-12-20T10:54:44;8.55;;;2.17;;
77202;SDS011;66327;50.096;8.498;2023-12-20T10:57:10;4.65;;;1.50;;
77202;SDS011;66327;50.096;8.498;2023-12-20T10:59:37;3.80;;;1.15;;
77202;SDS011;66327;50.096;8.498;2023-12-20T11:02:05;6.35;;;2.00;;
77202;SDS011;66327;50.096;8.498;2023-12-20T11:07:22;4.78;;;1.58;;
77202;SDS011;66327;50.096;8.498;2023-12-20T11:10:03;1.77;;;1.17;;
77202;SDS011;66327;50.096;8.498;2023-12-20T11:12:37;4.13;;;2.03;;
77202;SDS011;66327;50.096;8.498;2023-12-20T11:15:06;7.22;;;1.95;;
77202;SDS011;66327;50.096;8.498;2023-12-20T11:17:32;2.03;;;1.08;;
77202;SDS011;66327;50.096;8.498;2023-12-20T11:22:29;4.30;;;1.38;;
77202;SDS011;66327;50.096;8.498;2023-12-20T11:27:34;7.97;;;1.50;;
77202;SDS011;66327;50.096;8.498;2023-12-20T11:30:02;4.03;;;1.77;;
77202;SDS011;66327;50.096;8.498;2023-12-20T11:32:29;5.90;;;1.92;;
77202;SDS011;66327;50.096;8.498;2023-12-20T11:34:58;11.23;;;1.30;;
77202;SDS011;66327;50.096;8.498;2023-12-20T11:37:29;3.53;;;1.35;;
77202;SDS011;66327;50.096;8.498;2023-12-20T11:40:02;4.07;;;1.15;;
77202;SDS011;66327;50.096;8.498;2023-12-20T11:42:32;3.15;;;1.15;;
77202;SDS011;66327;50.096;8.498;2023-12-20T11:44:59;3.50;;;1.30;;
77202;SDS011;66327;50.096;8.498;2023-12-20T11:47:25;4.10;;;1.52;;
77202;SDS011;66327;50.096;8.498;2023-12-20T11:49:52;5.68;;;1.67;;
77202;SDS011;66327;50.096;8.498;2023-12-20T11:52:19;6.80;;;1.15;;
77202;SDS011;66327;50.096;8.498;2023-12-20T11:54:45;8.70;;;1.60;;
77202;SDS011;66327;50.096;8.498;2023-12-20T11:57:12;6.78;;;1.80;;
77202;SDS011;66327;50.096;8.498;2023-12-20T11:59:38;1.77;;;0.93;;
77202;SDS011;66327;50.096;8.498;2023-12-20T12:02:04;4.05;;;1.58;;
77202;SDS011;66327;50.096;8.498;2023-12-20T12:04:32;3.35;;;0.90;;
77202;SDS011;66327;50.096;8.498;2023-12-20T12:06:59;1.20;;;0.65;;
77202;SDS011;66327;50.096;8.498;2023-12-20T12:09:25;8.75;;;2.15;;
77202;SDS011;66327;50.096;8.498;2023-12-20T12:11:51;3.33;;;1.50;;
77202;SDS011;66327;50.096;8.498;2023-12-20T12:14:18;5.32;;;1.95;;
77202;SDS011;66327;50.096;8.498;2023-12-20T12:16:45;3.60;;;1.10;;
77202;SDS011;66327;50.096;8.498;2023-12-20T12:19:21;3.60;;;1.55;;
77202;SDS011;66327;50.096;8.498;2023-12-20T12:21:48;3.60;;;1.45;;
77202;SDS011;66327;50.096;8.498;2023-12-20T12:24:15;2.38;;;1.17;;
77202;SDS011;66327;50.096;8.498;2023-12-20T12:26:41;2.85;;;1.15;;
77202;SDS011;66327;50.096;8.498;2023-12-20T12:29:07;2.83;;;1.35;;
77202;SDS011;66327;50.096;8.498;2023-12-20T12:31:34;6.95;;;1.38;;
77202;SDS011;66327;50.096;8.498;2023-12-20T12:34:00;3.78;;;1.20;;
77202;SDS011;66327;50.096;8.498;2023-12-20T12:36:29;3.90;;;1.67;;
77202;SDS011;66327;50.096;8.498;2023-12-20T12:39:08;5.20;;;1.10;;
77202;SDS011;66327;50.096;8.498;2023-12-20T12:41:34;1.40;;;0.77;;
77202;SDS011;66327;50.096;8.498;2023-12-20T12:44:01;6.63;;;1.90;;
77202;SDS011;66327;50.096;8.498;2023-12-20T12:46:40;2.50;;;0.98;;
77202;SDS011;66327;50.096;8.498;2023-12-20T12:49:06;6.68;;;1.25;;
77202;SDS011;66327;50.096;8.498;2023-12-20T12:51:34;1.65;;;0.73;;
77202;SDS011;66327;50.096;8.498;2023-12-20T12:54:00;5.40;;;1.50;;
77202;SDS011;66327;50.096;8.498;2023-12-20T12:56:28;3.65;;;1.33;;
77202;SDS011;66327;50.096;8.498;2023-12-20T12:58:54;4.05;;;1.70;;
77202;SDS011;66327;50.096;8.498;2023-12-20T13:01:22;4.22;;;1.65;;
77202;SDS011;66327;50.096;8.498;2023-12-20T13:03:49;6.05;;;1.65;;
77202;SDS011;66327;50.096;8.498;2023-12-20T13:06:15;4.35;;;1.40;;
77202;SDS011;66327;50.096;8.498;2023-12-20T13:08:42;6.53;;;1.73;;
77202;SDS011;66327;50.096;8.498;2023-12-20T13:11:08;8.98;;;2.08;;
77202;SDS011;66327;50.096;8.498;2023-12-20T13:13:34;4.28;;;1.27;;
77202;SDS011;66327;50.096;8.498;2023-12-20T13:16:00;3.13;;;1.33;;
77202;SDS011;66327;50.096;8.498;2023-12-20T13:18:27;3.50;;;0.77;;
77202;SDS011;66327;50.096;8.498;2023-12-20T13:20:53;4.80;;;1.60;;
77202;SDS011;66327;50.096;8.498;2023-12-20T13:23:19;1.20;;;0.75;;
77202;SDS011;66327;50.096;8.498;2023-12-20T13:25:46;3.47;;;1.40;;
77202;SDS011;66327;50.096;8.498;2023-12-20T13:28:12;5.75;;;1.70;;
77202;SDS011;66327;50.096;8.498;2023-12-20T13:30:39;3.58;;;1.23;;
77202;SDS011;66327;50.096;8.498;2023-12-20T13:33:06;3.08;;;1.50;;
77202;SDS011;66327;50.096;8.498;2023-12-20T13:35:33;1.98;;;0.88;;
77202;SDS011;66327;50.096;8.498;2023-12-20T13:38:00;4.82;;;1.70;;
77202;SDS011;66327;50.096;8.498;2023-12-20T13:40:26;5.13;;;1.40;;
77202;SDS011;66327;50.096;8.498;2023-12-20T13:45:21;4.63;;;1.58;;
77202;SDS011;66327;50.096;8.498;2023-12-20T13:47:47;7.07;;;1.98;;
77202;SDS011;66327;50.096;8.498;2023-12-20T13:50:14;6.75;;;1.92;;
77202;SDS011;66327;50.096;8.498;2023-12-20T13:52:40;4.70;;;2.05;;
77202;SDS011;66327;50.096;8.498;2023-12-20T13:55:07;7.75;;;1.85;;
77202;SDS011;66327;50.096;8.498;2023-12-20T13:57:34;1.98;;;1.45;;
77202;SDS011;66327;50.096;8.498;2023-12-20T14:00:08;7.03;;;1.83;;
77202;SDS011;66327;50.096;8.498;2023-12-20T14:02:41;3.63;;;1.42;;
77202;SDS011;66327;50.096;8.498;2023-12-20T14:05:08;9.57;;;2.58;;
77202;SDS011;66327;50.096;8.498;2023-12-20T14:07:35;4.60;;;1.30;;
77202;SDS011;66327;50.096;8.498;2023-12-20T14:10:01;2.25;;;0.93;;
77202;SDS011;66327;50.096;8.498;2023-12-20T14:12:28;4.30;;;1.50;;
77202;SDS011;66327;50.096;8.498;2023-12-20T14:14:54;5.90;;;2.00;;
77202;SDS011;66327;50.096;8.498;2023-12-20T14:17:22;2.08;;;1.27;;
77202;SDS011;66327;50.096;8.498;2023-12-20T14:19:48;5.78;;;1.77;;
77202;SDS011;66327;50.096;8.498;2023-12-20T14:22:15;5.60;;;1.33;;
77202;SDS011;66327;50.096;8.498;2023-12-20T14:27:09;2.95;;;1.27;;
77202;SDS011;66327;50.096;8.498;2023-12-20T14:29:35;2.38;;;0.77;;
77202;SDS011;66327;50.096;8.498;2023-12-20T14:32:01;5.03;;;1.05;;
77202;SDS011;66327;50.096;8.498;2023-12-20T14:34:29;1.75;;;1.10;;
77202;SDS011;66327;50.096;8.498;2023-12-20T14:36:55;3.88;;;1.50;;
77202;SDS011;66327;50.096;8.498;2023-12-20T14:39:22;2.28;;;1.13;;
77202;SDS011;66327;50.096;8.498;2023-12-20T14:41:49;5.95;;;1.60;;
77202;SDS011;66327;50.096;8.498;2023-12-20T14:44:15;2.83;;;1.25;;
77202;SDS011;66327;50.096;8.498;2023-12-20T14:46:43;6.57;;;1.73;;
77202;SDS011;66327;50.096;8.498;2023-12-20T14:49:09;3.80;;;1.58;;
77202;SDS011;66327;50.096;8.498;2023-12-20T14:51:35;3.45;;;1.35;;
77202;SDS011;66327;50.096;8.498;2023-12-20T14:54:03;2.53;;;1.08;;
77202;SDS011;66327;50.096;8.498;2023-12-20T14:56:30;2.95;;;1.33;;
77202;SDS011;66327;50.096;8.498;2023-12-20T14:58:58;1.15;;;0.43;;
77202;SDS011;66327;50.096;8.498;2023-12-20T15:01:28;4.15;;;1.25;;
77202;SDS011;66327;50.096;8.498;2023-12-20T15:03:55;4.38;;;1.38;;
77202;SDS011;66327;50.096;8.498;2023-12-20T15:06:22;9.98;;;1.77;;
77202;SDS011;66327;50.096;8.498;2023-12-20T15:08:49;1.75;;;0.80;;